Time,TemperatureF,DewpointF,PressureIn,WindDirection,WindDirectionDegrees,WindSpeedMPH,WindSpeedGustMPH,Humidity,HourlyPrecipIn,Conditions,Clouds,dailyrainin,SoftwareType,DateUTC
2013-06-18 00:07:00,78.4,-29.8,29.62,South,180,1.1,-999.0,1,-99.99,,,0.00,Acu-Link.com,2013-06-18 05:07:00,
2013-06-18 00:22:00,78.3,-29.9,29.62,SSW,202,1.1,-999.0,1,-99.99,,,0.00,Acu-Link.com,2013-06-18 05:22:00,
2013-06-18 00:37:00,77.9,-30.1,29.62,SSW,202,2.2,-999.0,1,-99.99,,,0.00,Acu-Link.com,2013-06-18 05:37:00,
2013-06-18 00:53:00,77.9,-30.1,29.62,South,180,2.7,-999.0,1,-99.99,,,0.00,Acu-Link.com,2013-06-18 05:53:00,
2013-06-18 01:08:00,77.9,-30.1,29.63,WSW,247,1.7,-999.0,1,-99.99,,,0.00,Acu-Link.com,2013-06-18 06:08:00,
2013-06-18 01:23:00,77.7,-30.2,29.63,South,180,0.0,-999.0,1,-99.99,,,0.00,Acu-Link.com,2013-06-18 06:23:00,
2013-06-18 01:38:00,77.2,-30.5,29.63,SSW,202,1.1,-999.0,1,-99.99,,,0.00,Acu-Link.com,2013-06-18 06:38:00,
2013-06-18 01:54:00,77.0,-30.6,29.62,SSW,202,2.2,-999.0,1,-99.99,,,0.00,Acu-Link.com,2013-06-18 06:54:00,
2013-06-18 02:09:00,77.0,76.4,29.62,SSE,157,3.2,-999.0,98,-99.99,,,0.00,Acu-Link.com,2013-06-18 07:09:00,
2013-06-18 02:24:00,77.0,-30.6,29.62,SW,225,2.2,-999.0,1,-99.99,,,0.00,Acu-Link.com,2013-06-18 07:24:00,
2013-06-18 02:39:00,77.0,-30.6,29.63,SW,225,2.7,-999.0,1,-99.99,,,0.00,Acu-Link.com,2013-06-18 07:39:00,
2013-06-18 02:55:00,76.5,-30.9,29.62,WSW,247,1.7,-999.0,1,-99.99,,,0.00,Acu-Link.com,2013-06-18 07:55:00,
2013-06-18 03:10:00,76.5,-30.9,29.62,South,180,0.0,-999.0,1,-99.99,,,0.00,Acu-Link.com,2013-06-18 08:10:00,
2013-06-18 03:25:00,76.5,-30.9,29.62,South,180,0.0,-999.0,1,-99.99,,,0.00,Acu-Link.com,2013-06-18 08:25:00,
2013-06-18 03:41:00,76.3,-31.0,29.62,SW,225,1.7,-999.0,1,-99.99,,,0.00,Acu-Link.com,2013-06-18 08:41:00,
2013-06-18 03:56:00,76.3,-31.0,29.62,South,180,1.7,-999.0,1,-99.99,,,0.00,Acu-Link.com,2013-06-18 08:56:00,
2013-06-18 04:11:00,76.3,-31.0,29.62,South,180,0.0,-999.0,1,-99.99,,,0.00,Acu-Link.com,2013-06-18 09:11:00,
2013-06-18 04:26:00,76.3,-31.0,29.62,SSW,202,2.7,-999.0,1,-99.99,,,0.00,Acu-Link.com,2013-06-18 09:26:00,
2013-06-18 04:41:00,76.1,-31.2,29.61,SW,225,2.7,-999.0,1,-99.99,,,0.00,Acu-Link.com,2013-06-18 09:41:00,
2013-06-18 04:56:00,76.1,-31.2,29.61,SSW,202,1.7,-999.0,1,-99.99,,,0.00,Acu-Link.com,2013-06-18 09:56:00,
2013-06-18 05:12:00,76.1,21.7,29.61,SW,225,3.7,-999.0,13,-99.99,,,0.00,Acu-Link.com,2013-06-18 10:12:00,
2013-06-18 05:27:00,76.1,-31.2,29.61,SSW,202,1.1,-999.0,1,-99.99,,,0.00,Acu-Link.com,2013-06-18 10:27:00,
2013-06-18 05:42:00,76.1,-31.2,29.60,South,180,2.7,-999.0,1,-99.99,,,0.00,Acu-Link.com,2013-06-18 10:42:00,
2013-06-18 05:57:00,76.1,-31.2,29.60,South,180,2.7,-999.0,1,-99.99,,,0.00,Acu-Link.com,2013-06-18 10:57:00,
2013-06-18 06:13:00,76.1,-31.2,29.62,SW,225,2.2,-999.0,1,-99.99,,,0.00,Acu-Link.com,2013-06-18 11:13:00,
2013-06-18 06:28:00,76.1,-31.2,29.63,SSW,202,0.0,-999.0,1,-99.99,,,0.00,Acu-Link.com,2013-06-18 11:28:00,
2013-06-18 06:43:00,76.1,-31.2,29.65,WSW,247,0.0,-999.0,1,-99.99,,,0.00,Acu-Link.com,2013-06-18 11:43:00,
2013-06-18 06:59:00,77.0,-30.6,29.65,SSW,202,0.0,-999.0,1,-99.99,,,0.00,Acu-Link.com,2013-06-18 11:59:00,
2013-06-18 07:14:00,78.6,-8.6,29.66,WSW,247,0.0,-999.0,3,-99.99,,,0.00,Acu-Link.com,2013-06-18 12:14:00,
2013-06-18 07:29:00,79.5,-29.1,29.66,SW,225,2.7,-999.0,1,-99.99,,,0.00,Acu-Link.com,2013-06-18 12:29:00,
2013-06-18 07:45:00,81.0,-28.2,29.66,South,180,3.7,-999.0,1,-99.99,,,0.00,Acu-Link.com,2013-06-18 12:45:00,
2013-06-18 08:00:00,83.5,-26.8,29.66,SSE,157,2.2,-999.0,1,-99.99,,,0.00,Acu-Link.com,2013-06-18 13:00:00,
2013-06-18 08:15:00,85.1,-25.8,29.66,SW,225,3.2,-999.0,1,-99.99,,,0.00,Acu-Link.com,2013-06-18 13:15:00,
2013-06-18 08:30:00,85.3,-25.7,29.67,SW,225,4.7,-999.0,1,-99.99,,,0.00,Acu-Link.com,2013-06-18 13:30:00,
2013-06-18 08:46:00,86.5,-25.0,29.67,WSW,247,5.8,-999.0,1,-99.99,,,0.00,Acu-Link.com,2013-06-18 13:46:00,
2013-06-18 09:01:00,86.4,-25.0,29.67,WSW,247,5.3,-999.0,1,-99.99,,,0.00,Acu-Link.com,2013-06-18 14:01:00,
2013-06-18 09:16:00,87.1,-24.6,29.66,SW,225,8.9,-999.0,1,-99.99,,,0.00,Acu-Link.com,2013-06-18 14:16:00,
2013-06-18 09:31:00,88.3,-23.9,29.66,SW,225,6.8,-999.0,1,-99.99,,,0.00,Acu-Link.com,2013-06-18 14:31:00,
2013-06-18 09:46:00,86.9,-24.8,29.66,SSW,202,10.4,-999.0,1,-99.99,,,0.00,Acu-Link.com,2013-06-18 14:46:00,
2013-06-18 10:01:00,87.1,-24.6,29.66,WSW,247,6.3,-999.0,1,-99.99,,,0.00,Acu-Link.com,2013-06-18 15:01:00,
2013-06-18 10:16:00,87.3,-24.5,29.65,WSW,247,5.3,-999.0,1,-99.99,,,0.00,Acu-Link.com,2013-06-18 15:16:00,
2013-06-18 10:31:00,87.4,-24.5,29.66,SW,225,7.8,-999.0,1,-99.99,,,0.00,Acu-Link.com,2013-06-18 15:31:00,
2013-06-18 10:46:00,88.0,-24.1,29.66,WSW,247,4.7,-999.0,1,-99.99,,,0.00,Acu-Link.com,2013-06-18 15:46:00,
2013-06-18 11:01:00,88.0,-24.1,29.67,West,270,4.2,-999.0,1,-99.99,,,0.00,Acu-Link.com,2013-06-18 16:01:00,
2013-06-18 11:16:00,89.6,-23.2,29.66,SSW,202,8.9,-999.0,1,-99.99,,,0.00,Acu-Link.com,2013-06-18 16:16:00,
2013-06-18 11:32:00,91.2,-22.2,29.66,SSW,202,8.3,-999.0,1,-99.99,,,0.00,Acu-Link.com,2013-06-18 16:32:00,
2013-06-18 11:47:00,93.2,-21.0,29.66,SW,225,6.8,-999.0,1,-99.99,,,0.00,Acu-Link.com,2013-06-18 16:47:00,
2013-06-18 12:02:00,92.7,-21.3,29.66,SSW,202,3.7,-999.0,1,-99.99,,,0.00,Acu-Link.com,2013-06-18 17:02:00,
2013-06-18 12:17:00,93.0,-21.2,29.66,WSW,247,6.3,-999.0,1,-99.99,,,0.00,Acu-Link.com,2013-06-18 17:17:00,
2013-06-18 12:33:00,95.7,-19.6,29.66,SW,225,7.8,-999.0,1,-99.99,,,0.00,Acu-Link.com,2013-06-18 17:33:00,
2013-06-18 12:48:00,93.9,-20.6,29.66,SW,225,3.7,-999.0,1,-99.99,,,0.00,Acu-Link.com,2013-06-18 17:48:00,
2013-06-18 13:03:00,95.7,-19.6,29.65,WSW,247,1.7,-999.0,1,-99.99,,,0.00,Acu-Link.com,2013-06-18 18:03:00,
2013-06-18 13:18:00,98.6,-17.9,29.64,SSW,202,3.2,-999.0,1,-99.99,,,0.00,Acu-Link.com,2013-06-18 18:18:00,
2013-06-18 13:33:00,93.4,-20.9,29.64,WNW,292,2.7,-999.0,1,-99.99,,,0.00,Acu-Link.com,2013-06-18 18:33:00,
2013-06-18 13:48:00,93.7,-20.7,29.63,West,270,4.2,-999.0,1,-99.99,,,0.00,Acu-Link.com,2013-06-18 18:48:00,
2013-06-18 14:04:00,93.9,-20.6,29.62,WSW,247,1.7,-999.0,1,-99.99,,,0.00,Acu-Link.com,2013-06-18 19:04:00,
2013-06-18 14:19:00,98.6,-17.9,29.61,North,0,1.1,-999.0,1,-99.99,,,0.00,Acu-Link.com,2013-06-18 19:19:00,
2013-06-18 14:34:00,95.7,-19.6,29.60,South,180,4.2,-999.0,1,-99.99,,,0.00,Acu-Link.com,2013-06-18 19:34:00,
2013-06-18 14:49:00,95.0,-20.0,29.60,SSE,157,5.8,-999.0,1,-99.99,,,0.00,Acu-Link.com,2013-06-18 19:49:00,
2013-06-18 15:05:00,94.1,-20.5,29.60,South,180,5.3,-999.0,1,-99.99,,,0.00,Acu-Link.com,2013-06-18 20:05:00,
2013-06-18 15:20:00,93.7,-20.7,29.60,South,180,5.8,-999.0,1,-99.99,,,0.00,Acu-Link.com,2013-06-18 20:20:00,
2013-06-18 15:35:00,93.7,-20.7,29.59,South,180,7.3,-999.0,1,-99.99,,,0.00,Acu-Link.com,2013-06-18 20:35:00,
2013-06-18 15:50:00,95.5,-19.7,29.60,SW,225,4.7,-999.0,1,-99.99,,,0.00,Acu-Link.com,2013-06-18 20:50:00,
2013-06-18 16:05:00,92.8,-21.3,29.59,SW,225,8.3,-999.0,1,-99.99,,,0.00,Acu-Link.com,2013-06-18 21:05:00,
2013-06-18 16:20:00,91.4,-22.1,29.60,SSW,202,7.8,-999.0,1,-99.99,,,0.00,Acu-Link.com,2013-06-18 21:20:00,
2013-06-18 16:35:00,93.6,-20.8,29.60,SSW,202,7.3,-999.0,1,-99.99,,,0.00,Acu-Link.com,2013-06-18 21:35:00,
2013-06-18 16:50:00,92.1,-21.7,29.60,South,180,4.7,-999.0,1,-99.99,,,0.00,Acu-Link.com,2013-06-18 21:50:00,
2013-06-18 17:05:00,92.7,-21.3,29.60,WSW,247,7.8,-999.0,1,-99.99,,,0.00,Acu-Link.com,2013-06-18 22:05:00,
2013-06-18 17:20:00,92.3,-21.6,29.59,WSW,247,8.9,-999.0,1,-99.99,,,0.00,Acu-Link.com,2013-06-18 22:20:00,
2013-06-18 17:36:00,91.6,-22.0,29.59,WSW,247,9.4,-999.0,1,-99.99,,,0.00,Acu-Link.com,2013-06-18 22:36:00,
2013-06-18 17:51:00,92.3,-21.6,29.59,SSW,202,2.7,-999.0,1,-99.99,,,0.00,Acu-Link.com,2013-06-18 22:51:00,
2013-06-18 18:06:00,91.0,-22.3,29.58,SW,225,6.3,-999.0,1,-99.99,,,0.00,Acu-Link.com,2013-06-18 23:06:00,
2013-06-18 18:21:00,90.0,-22.9,29.58,WSW,247,4.7,-999.0,1,-99.99,,,0.00,Acu-Link.com,2013-06-18 23:21:00,
2013-06-18 18:36:00,88.0,-24.1,29.59,WSW,247,6.3,-999.0,1,-99.99,,,0.00,Acu-Link.com,2013-06-18 23:36:00,
2013-06-18 18:51:00,87.4,-24.5,29.60,WSW,247,5.8,-999.0,1,-99.99,,,0.00,Acu-Link.com,2013-06-18 23:51:00,
2013-06-18 19:06:00,86.9,-24.8,29.60,WSW,247,3.7,-999.0,1,-99.99,,,0.00,Acu-Link.com,2013-06-19 00:06:00,
2013-06-18 19:21:00,81.9,-27.7,29.62,NNW,337,8.9,-999.0,1,-99.99,,,0.00,Acu-Link.com,2013-06-19 00:21:00,
2013-06-18 19:36:00,77.9,-30.1,29.64,North,0,6.3,-999.0,1,-99.99,,,0.00,Acu-Link.com,2013-06-19 00:36:00,
2013-06-18 19:51:00,75.7,-31.4,29.66,WNW,292,6.3,-999.0,1,-99.99,,,0.00,Acu-Link.com,2013-06-19 00:51:00,
2013-06-18 20:07:00,74.1,53.1,29.66,WNW,292,5.3,-999.0,48,-99.99,,,0.02,Acu-Link.com,2013-06-19 01:07:00,
2013-06-18 20:22:00,73.6,-32.7,29.67,SW,225,5.8,-999.0,1,-99.99,,,0.02,Acu-Link.com,2013-06-19 01:22:00,
2013-06-18 20:37:00,73.0,-33.0,29.68,West,270,4.2,-999.0,1,-99.99,,,0.06,Acu-Link.com,2013-06-19 01:37:00,
2013-06-18 20:53:00,72.1,-33.6,29.67,West,270,2.2,-999.0,1,-99.99,,,0.08,Acu-Link.com,2013-06-19 01:53:00,
2013-06-18 21:08:00,72.7,-33.2,29.66,NNE,22,2.7,-999.0,1,-99.99,,,0.22,Acu-Link.com,2013-06-19 02:08:00,
2013-06-18 21:23:00,72.9,-33.1,29.66,ENE,67,2.2,-999.0,1,-99.99,,,0.22,Acu-Link.com,2013-06-19 02:23:00,
2013-06-18 21:39:00,72.9,-33.1,29.65,NE,45,3.2,-999.0,1,-99.99,,,0.22,Acu-Link.com,2013-06-19 02:39:00,
2013-06-18 21:54:00,73.2,-32.9,29.65,ENE,67,0.0,-999.0,1,-99.99,,,0.22,Acu-Link.com,2013-06-19 02:54:00,
2013-06-18 22:09:00,73.2,-32.9,29.64,East,90,3.7,-999.0,1,-99.99,,,0.22,Acu-Link.com,2013-06-19 03:09:00,
2013-06-18 22:24:00,72.9,-33.1,29.64,East,90,4.7,-999.0,1,-99.99,,,0.22,Acu-Link.com,2013-06-19 03:24:00,
2013-06-18 22:40:00,73.0,-33.0,29.64,East,90,4.7,-999.0,1,-99.99,,,0.22,Acu-Link.com,2013-06-19 03:40:00,
2013-06-18 22:55:00,73.2,-32.9,29.64,SSE,157,3.7,-999.0,1,-99.99,,,0.22,Acu-Link.com,2013-06-19 03:55:00,
2013-06-18 23:10:00,73.2,-32.9,29.65,NNE,22,0.0,-999.0,1,-99.99,,,0.22,Acu-Link.com,2013-06-19 04:10:00,
2013-06-18 23:35:00,73.2,-32.9,29.64,ESE,112,2.2,-999.0,1,-99.99,,,0.23,Acu-Link.com,2013-06-19 04:35:00,
2013-06-18 23:50:00,73.2,-32.9,29.64,South,180,2.2,-999.0,1,-99.99,,,0.23,Acu-Link.com,2013-06-19 04:50:00,